Time;durP1;ratioP1;P1;durP2;ratioP2;P2;SDS_P1;SDS_P2;PMS_P1;PMS_P2;Temp;Humidity;BMP_temperature;BMP_pressure;BME280_temperature;BME280_humidity;BME280_pressure;Samples;Min_cycle;Max_cycle;Signal;HPM_P1;HPM_P2
2022/08/16 00:03:02;;;;;;;14.03;9.90;;;;;;;22.50;77.89;99601.88;3553244;81;32274;-82
2022/08/16 00:08:04;;;;;;;15.68;10.13;;;;;;;22.51;78.12;99598.47;3562022;81;98914;-82
2022/08/16 00:13:08;;;;;;;17.55;11.73;;;;;;;22.48;77.69;99592.39;3569143;81;28736;-83
2022/08/16 00:18:10;;;;;;;15.88;9.90;;;;;;;22.42;77.92;99604.09;3585934;81;97981;-83
2022/08/16 00:23:13;;;;;;;17.48;10.90;;;;;;;22.41;78.27;99602.55;3573671;81;37918;-82
2022/08/16 00:28:14;;;;;;;14.75;10.85;;;;;;;22.42;78.51;99592.88;3565176;81;98889;-83
2022/08/16 00:33:15;;;;;;;16.35;10.28;;;;;;;22.40;78.60;99593.34;3543486;81;31790;-82
2022/08/16 00:38:17;;;;;;;15.65;11.35;;;;;;;22.40;78.75;99593.98;3498831;82;98641;-82
2022/08/16 00:43:23;;;;;;;15.08;10.85;;;;;;;22.36;78.50;99587.16;3519979;82;31678;-82
2022/08/16 00:48:24;;;;;;;14.45;10.88;;;;;;;22.30;78.63;99590.47;3546220;81;99176;-82
2022/08/16 00:53:25;;;;;;;17.35;11.08;;;;;;;22.29;78.90;99592.34;3533822;81;31600;-82
2022/08/16 00:58:30;;;;;;;15.90;11.40;;;;;;;22.24;78.93;99598.59;3546086;81;98952;-82
2022/08/16 01:03:31;;;;;;;17.77;11.33;;;;;;;22.19;79.16;99604.20;3542487;81;26410;-82
2022/08/16 01:08:35;;;;;;;16.67;10.65;;;;;;;22.16;79.41;99614.98;3543963;81;99090;-82
2022/08/16 01:13:39;;;;;;;15.18;10.85;;;;;;;22.16;79.50;99607.19;3536907;81;31708;-82
2022/08/16 01:18:51;;;;;;;15.95;10.75;;;;;;;22.16;79.67;99616.38;3542531;81;98702;-81
2022/08/16 01:24:20;;;;;;;15.93;11.75;;;;;;;22.13;79.71;99622.16;3555606;81;32898;-83
2022/08/16 01:29:27;;;;;;;19.32;12.37;;;;;;;22.01;79.76;99620.36;3542844;81;99062;-82
2022/08/16 01:34:28;;;;;;;18.70;12.68;;;;;;;21.92;80.08;99625.38;3540946;81;32394;-83
2022/08/16 01:39:30;;;;;;;18.62;12.03;;;;;;;21.91;80.32;99618.20;3535405;81;98968;-83
2022/08/16 01:44:31;;;;;;;16.30;11.22;;;;;;;21.88;80.60;99615.57;3545887;81;31627;-83
2022/08/16 01:49:39;;;;;;;17.45;12.20;;;;;;;21.86;80.60;99612.47;3524362;82;99015;-83
2022/08/16 01:54:40;;;;;;;17.98;12.10;;;;;;;21.88;80.59;99611.36;3550862;81;31794;-83
2022/08/16 01:59:42;;;;;;;18.12;11.90;;;;;;;21.84;80.60;99618.54;3542893;81;99050;-82
2022/08/16 02:04:43;;;;;;;18.55;12.37;;;;;;;21.82;80.71;99616.84;3549057;81;31660;-82
2022/08/16 02:09:47;;;;;;;17.75;11.63;;;;;;;21.80;80.72;99622.77;3526986;81;99163;-82
2022/08/16 02:14:48;;;;;;;16.77;11.10;;;;;;;21.79;80.87;99615.62;3539485;82;31710;-82
2022/08/16 02:19:50;;;;;;;23.15;12.88;;;;;;;21.78;80.82;99615.45;3546008;81;98475;-82
2022/08/16 02:24:52;;;;;;;18.45;11.48;;;;;;;21.74;80.93;99600.21;3531415;81;31601;-82
2022/08/16 02:29:53;;;;;;;15.40;11.25;;;;;;;21.74;81.06;99598.05;3558011;77;97740;-83
2022/08/16 02:34:54;;;;;;;16.60;11.43;;;;;;;21.71;81.03;99603.18;3534857;81;32007;-82
2022/08/16 02:39:55;;;;;;;16.10;11.70;;;;;;;21.67;81.04;99601.92;3537059;81;98936;-83
2022/08/16 02:44:56;;;;;;;14.90;10.43;;;;;;;21.65;81.00;99612.05;3547080;81;31635;-82
2022/08/16 02:49:57;;;;;;;17.82;12.33;;;;;;;21.63;81.22;99615.31;3538879;81;98868;-83
2022/08/16 02:54:58;;;;;;;18.12;12.75;;;;;;;21.59;80.94;99611.89;3558853;81;31240;-82
2022/08/16 03:00:05;;;;;;;18.30;12.70;;;;;;;21.54;81.21;99599.16;3544518;81;98928;-83
2022/08/16 03:05:05;;;;;;;16.23;11.70;;;;;;;21.50;81.24;99600.73;3551050;81;25865;-83
2022/08/16 03:10:10;;;;;;;16.60;12.00;;;;;;;21.48;81.12;99603.84;3554075;81;98570;-82
2022/08/16 03:15:14;;;;;;;16.35;11.88;;;;;;;21.44;81.32;99612.41;3546452;82;34337;-83
2022/08/16 03:20:16;;;;;;;20.97;12.75;;;;;;;21.40;81.36;99612.41;3518814;81;98767;-83
2022/08/16 03:25:17;;;;;;;21.27;12.45;;;;;;;21.33;81.68;99616.94;3558810;81;31591;-82
2022/08/16 03:30:26;;;;;;;19.17;13.35;;;;;;;21.27;81.62;99633.59;3559877;81;98446;-83
2022/08/16 03:35:31;;;;;;;19.10;13.90;;;;;;;21.26;82.15;99622.86;3536291;81;31669;-83
2022/08/16 03:40:35;;;;;;;17.10;11.90;;;;;;;21.28;82.21;99626.75;3547389;81;98577;-83
2022/08/16 03:45:37;;;;;;;20.08;12.80;;;;;;;21.29;82.39;99621.30;3541752;81;31618;-83
2022/08/16 03:50:38;;;;;;;18.77;13.30;;;;;;;21.28;82.35;99630.16;3534920;81;98564;-83
2022/08/16 03:55:40;;;;;;;18.45;13.20;;;;;;;21.29;82.31;99639.48;3546180;81;31727;-83
2022/08/16 04:00:41;;;;;;;18.40;13.22;;;;;;;21.28;82.46;99648.34;3524047;81;98491;-83
2022/08/16 04:05:46;;;;;;;17.73;12.58;;;;;;;21.27;82.51;99656.59;3537371;82;31640;-82
2022/08/16 04:10:48;;;;;;;15.63;12.07;;;;;;;21.26;82.54;99668.40;3528971;81;98629;-83
2022/08/16 04:15:51;;;;;;;21.40;12.95;;;;;;;21.27;82.56;99676.98;3564303;81;31691;-83
2022/08/16 04:20:53;;;;;;;17.20;12.20;;;;;;;21.25;82.43;99691.28;3526664;81;98930;-83
2022/08/16 04:25:54;;;;;;;16.97;12.95;;;;;;;21.24;82.54;99693.90;3562681;81;32303;-83
2022/08/16 04:30:55;;;;;;;20.32;13.98;;;;;;;21.24;82.40;99691.09;3551302;81;99027;-82
2022/08/16 04:35:57;;;;;;;17.92;12.00;;;;;;;21.23;82.73;99707.13;3534494;82;31163;-83
2022/08/16 04:41:00;;;;;;;21.70;14.38;;;;;;;21.25;82.71;99711.63;3564362;81;98940;-83
2022/08/16 04:46:01;;;;;;;20.75;15.10;;;;;;;21.25;82.78;99715.83;3552170;82;31737;-83
2022/08/16 04:51:03;;;;;;;24.57;15.85;;;;;;;21.28;82.73;99721.91;3527189;81;99303;-83
2022/08/16 04:56:05;;;;;;;24.20;14.38;;;;;;;21.23;82.91;99718.33;3542829;81;32301;-84
2022/08/16 05:01:06;;;;;;;24.47;16.77;;;;;;;21.21;83.00;99716.59;3541115;81;98619;-84
2022/08/16 05:06:07;;;;;;;26.52;16.32;;;;;;;21.17;83.66;99715.99;3537134;81;37942;-84
2022/08/16 05:11:12;;;;;;;23.02;16.70;;;;;;;21.12;84.00;99726.41;3542527;81;98450;-84
2022/08/16 05:16:27;;;;;;;21.17;15.95;;;;;;;21.09;84.57;99730.76;3547978;81;26072;-83
2022/08/16 05:21:30;;;;;;;22.58;15.48;;;;;;;21.08;84.67;99741.16;3542416;81;25914;-84
2022/08/16 05:26:32;;;;;;;19.87;14.87;;;;;;;21.10;84.57;99744.26;3522854;81;99170;-84
2022/08/16 05:31:33;;;;;;;26.15;17.35;;;;;;;21.20;84.39;99757.03;3552523;81;31773;-83
2022/08/16 05:36:34;;;;;;;20.80;14.10;;;;;;;21.24;84.45;99749.27;3570658;81;99006;-82
2022/08/16 05:41:37;;;;;;;17.84;12.58;;;;;;;21.30;84.41;99746.64;3578708;81;36988;-82
2022/08/16 05:46:37;;;;;;;25.55;17.48;;;;;;;21.40;84.53;99754.56;3576307;81;98741;-82
2022/08/16 05:51:40;;;;;;;24.10;16.42;;;;;;;21.59;85.22;99749.74;3593861;81;32280;-83
2022/08/16 05:56:41;;;;;;;21.07;14.70;;;;;;;21.82;85.10;99757.52;3580069;81;98731;-82
2022/08/16 06:01:44;;;;;;;20.80;15.08;;;;;;;22.15;84.85;99761.98;3582319;80;31923;-82
2022/08/16 06:06:45;;;;;;;23.27;15.75;;;;;;;22.51;84.66;99750.66;3582631;81;98886;-82
2022/08/16 06:11:46;;;;;;;20.52;13.88;;;;;;;22.85;83.48;99751.60;3557259;81;32827;-81
2022/08/16 06:16:47;;;;;;;19.90;15.80;;;;;;;23.12;83.40;99745.82;3516182;82;98596;-82
2022/08/16 06:21:49;;;;;;;21.48;15.48;;;;;;;23.31;81.84;99745.86;3594251;80;31677;-81
2022/08/16 06:26:50;;;;;;;22.50;14.60;;;;;;;23.46;81.37;99752.30;3536866;82;98709;-83
2022/08/16 06:31:51;;;;;;;19.32;13.60;;;;;;;23.72;81.79;99765.18;3528510;82;31782;-81
2022/08/16 06:36:52;;;;;;;17.37;13.05;;;;;;;23.78;81.26;99769.66;3551032;81;98715;-81
2022/08/16 06:41:53;;;;;;;21.20;14.30;;;;;;;24.00;81.58;99777.75;3552955;82;31762;-81
2022/08/16 06:46:54;;;;;;;18.17;13.18;;;;;;;24.24;80.91;99785.48;3554135;82;99262;-81
2022/08/16 06:51:55;;;;;;;18.07;12.73;;;;;;;24.22;80.57;99786.58;3565759;82;31601;-82
2022/08/16 06:56:56;;;;;;;21.30;13.62;;;;;;;24.44;80.75;99785.55;3553473;82;98667;-83
2022/08/16 07:01:58;;;;;;;16.52;12.75;;;;;;;24.53;79.24;99781.23;3568477;82;33989;-80
2022/08/16 07:07:00;;;;;;;20.37;15.35;;;;;;;24.59;79.22;99784.32;3548158;82;98715;-80
2022/08/16 07:12:02;;;;;;;21.35;13.05;;;;;;;24.56;78.17;99785.25;3561034;82;31751;-80
2022/08/16 07:17:06;;;;;;;19.50;13.28;;;;;;;24.58;78.51;99779.93;3553255;82;98682;-81
2022/08/16 07:22:07;;;;;;;18.55;12.70;;;;;;;24.74;78.58;99786.45;3564776;82;31681;-81
2022/08/16 07:27:08;;;;;;;16.80;11.97;;;;;;;24.82;78.18;99795.27;3558681;82;98674;-80
2022/08/16 07:32:10;;;;;;;15.93;11.25;;;;;;;24.91;77.98;99796.57;3555754;81;31651;-80
2022/08/16 07:37:11;;;;;;;16.50;11.78;;;;;;;24.96;77.24;99800.86;3555478;81;99171;-80
2022/08/16 07:42:12;;;;;;;16.23;11.50;;;;;;;25.12;77.21;99796.75;3561350;82;31658;-80
2022/08/16 07:47:13;;;;;;;17.05;11.48;;;;;;;25.27;76.54;99803.11;3550833;82;98665;-80
2022/08/16 07:52:14;;;;;;;14.70;11.28;;;;;;;25.42;75.94;99791.94;3556716;82;31650;-80
2022/08/16 07:57:16;;;;;;;16.60;10.88;;;;;;;25.58;75.85;99789.97;3517990;81;98670;-80
2022/08/16 08:02:17;;;;;;;13.80;10.43;;;;;;;25.83;75.22;99794.09;3529477;82;31742;-81
2022/08/16 08:07:18;;;;;;;13.93;10.10;;;;;;;26.04;74.43;99799.87;3535988;82;98626;-80
2022/08/16 08:12:19;;;;;;;11.90;9.03;;;;;;;26.24;73.41;99801.98;3570329;81;31713;-80
2022/08/16 08:17:21;;;;;;;15.55;11.12;;;;;;;26.45;72.83;99806.29;3571203;81;98487;-81
2022/08/16 08:22:22;;;;;;;13.40;9.95;;;;;;;26.65;71.55;99813.27;3563065;82;32409;-81
2022/08/16 08:27:24;;;;;;;16.42;10.80;;;;;;;27.01;70.32;99811.11;3539749;81;98506;-81
2022/08/16 08:32:27;;;;;;;15.20;10.43;;;;;;;27.58;70.19;99806.69;3568275;81;41715;-82
2022/08/16 08:37:28;;;;;;;12.80;8.55;;;;;;;28.30;68.67;99811.92;3553599;81;98868;-80
2022/08/16 08:42:29;;;;;;;16.35;10.55;;;;;;;28.93;67.51;99822.91;3556928;80;32213;-82
2022/08/16 08:47:31;;;;;;;16.07;10.43;;;;;;;29.77;65.56;99828.66;3545954;80;98638;-80
2022/08/16 08:52:32;;;;;;;12.55;9.28;;;;;;;30.45;62.61;99829.95;3527070;82;32608;-82
2022/08/16 08:57:33;;;;;;;12.78;9.50;;;;;;;31.20;63.18;99823.40;3539174;82;98694;-81
2022/08/16 09:02:34;;;;;;;11.28;8.60;;;;;;;32.17;60.58;99831.92;3536715;82;27963;-81
2022/08/16 09:07:37;;;;;;;13.18;8.88;;;;;;;32.73;57.98;99841.16;3516573;81;98552;-81
2022/08/16 09:12:39;;;;;;;12.95;9.25;;;;;;;33.52;58.00;99847.83;3519794;81;26499;-83
2022/08/16 09:17:42;;;;;;;14.95;9.35;;;;;;;34.27;53.42;99859.62;3510073;81;98474;-84
2022/08/16 09:22:44;;;;;;;10.90;8.25;;;;;;;34.44;53.23;99859.25;3565046;80;26162;-82
2022/08/16 09:27:45;;;;;;;10.32;7.25;;;;;;;35.23;52.38;99864.03;3548549;81;98889;-84
2022/08/16 09:32:48;;;;;;;12.58;8.48;;;;;;;35.61;50.76;99856.50;3527173;81;25867;-83
2022/08/16 09:37:50;;;;;;;11.40;8.10;;;;;;;36.28;50.05;99858.97;3503982;82;98660;-83
2022/08/16 09:42:54;;;;;;;12.40;8.10;;;;;;;36.42;47.97;99866.09;3535727;82;25940;-80
2022/08/16 09:47:54;;;;;;;9.38;7.92;;;;;;;37.00;46.24;99851.66;3557355;81;98525;-81
2022/08/16 09:52:55;;;;;;;11.48;7.95;;;;;;;37.59;45.83;99860.87;3556442;81;26459;-82
2022/08/16 09:57:56;;;;;;;11.40;7.53;;;;;;;38.02;45.25;99861.33;3555543;81;98971;-80
2022/08/16 10:02:58;;;;;;;10.95;8.20;;;;;;;38.63;42.69;99857.50;3556817;81;26476;-81
2022/08/16 10:07:59;;;;;;;12.18;8.35;;;;;;;38.92;42.05;99862.97;3521837;82;98525;-82
2022/08/16 10:13:13;;;;;;;10.13;7.87;;;;;;;39.11;40.40;99858.20;3545558;81;26288;-81
2022/08/16 10:18:15;;;;;;;9.30;7.45;;;;;;;39.26;39.72;99862.39;3530022;82;98898;-81
2022/08/16 10:23:16;;;;;;;10.68;7.08;;;;;;;39.57;38.95;99866.55;3539874;82;26268;-81
2022/08/16 10:28:17;;;;;;;8.05;6.33;;;;;;;39.45;39.13;99864.75;3539261;81;98560;-81
2022/08/16 10:33:18;;;;;;;11.10;6.40;;;;;;;40.04;38.30;99856.12;3542982;81;26812;-81
2022/08/16 10:38:20;;;;;;;10.90;6.97;;;;;;;40.22;36.40;99852.56;3537399;81;98505;-85
2022/08/16 10:43:22;;;;;;;9.13;5.87;;;;;;;40.16;33.70;99851.38;3547318;81;37362;-82
2022/08/16 10:48:23;;;;;;;9.30;6.20;;;;;;;39.66;33.60;99851.45;3527660;81;98408;-81
2022/08/16 10:53:30;;;;;;;8.75;6.12;;;;;;;39.61;33.12;99851.71;3550784;81;26106;-83
2022/08/16 10:58:32;;;;;;;8.75;6.28;;;;;;;39.49;31.96;99863.66;3530090;81;2477592;-82
2022/08/16 11:03:34;;;;;;;8.15;5.85;;;;;;;39.65;33.42;99855.69;3514341;81;2448177;-81
2022/08/16 11:08:37;;;;;;;9.43;5.97;;;;;;;40.03;32.42;99853.16;3492305;81;2232047;-81
2022/08/16 11:13:38;;;;;;;8.58;5.97;;;;;;;40.30;32.42;99850.33;3541128;82;25866;-83
2022/08/16 11:18:39;;;;;;;9.98;6.35;;;;;;;39.81;30.76;99854.86;3542122;81;98280;-81
2022/08/16 11:23:41;;;;;;;9.95;6.35;;;;;;;39.71;31.18;99860.55;3537391;81;47337;-86
2022/08/16 11:28:43;;;;;;;10.15;7.15;;;;;;;39.44;31.04;99858.91;3488173;81;2310007;-80
2022/08/16 11:33:44;;;;;;;9.00;7.28;;;;;;;39.40;30.87;99840.58;3542158;81;229359;-83
2022/08/16 11:38:46;;;;;;;8.05;6.53;;;;;;;39.53;30.64;99848.91;3551530;81;98612;-82
2022/08/16 11:43:47;;;;;;;12.73;7.58;;;;;;;39.25;30.67;99851.45;3545969;81;25957;-80
2022/08/16 11:48:50;;;;;;;8.53;6.78;;;;;;;39.11;30.36;99845.25;3540344;81;98536;-80
2022/08/16 11:53:51;;;;;;;9.98;7.72;;;;;;;39.13;31.68;99836.78;3549311;82;25856;-80
2022/08/16 11:58:52;;;;;;;9.90;7.50;;;;;;;39.27;32.58;99828.59;3542965;81;98292;-81
2022/08/16 12:03:54;;;;;;;11.50;7.25;;;;;;;39.09;31.17;99830.69;3527100;82;31387;-82
2022/08/16 12:08:59;;;;;;;8.50;6.42;;;;;;;38.99;30.87;99830.48;3538425;82;98782;-82
2022/08/16 12:14:02;;;;;;;10.18;6.97;;;;;;;39.01;31.78;99824.22;3539296;82;26464;-81
2022/08/16 12:19:06;;;;;;;21.35;8.55;;;;;;;38.98;32.85;99815.34;3536689;81;98825;-84
2022/08/16 12:24:08;;;;;;;10.75;7.78;;;;;;;39.02;31.57;99814.23;3561399;81;43324;-81
2022/08/16 12:29:09;;;;;;;8.80;6.58;;;;;;;38.89;31.47;99808.79;3539739;82;98511;-81
2022/08/16 12:34:10;;;;;;;15.08;7.80;;;;;;;38.88;32.73;99800.08;3535015;81;26204;-81
2022/08/16 12:39:12;;;;;;;8.48;6.50;;;;;;;38.99;31.67;99802.47;3541400;81;99052;-81
2022/08/16 12:44:14;;;;;;;9.78;6.92;;;;;;;38.63;32.30;99806.47;3533861;81;25968;-81
2022/08/16 12:49:15;;;;;;;9.33;7.00;;;;;;;38.59;32.56;99813.33;3539652;81;98462;-81
2022/08/16 12:54:16;;;;;;;10.15;6.92;;;;;;;38.42;32.37;99810.34;3532820;82;26338;-82
2022/08/16 12:59:19;;;;;;;9.28;6.85;;;;;;;38.20;32.87;99801.16;3524480;81;98489;-82
2022/08/16 13:04:20;;;;;;;9.85;7.03;;;;;;;38.27;33.51;99797.49;3543709;82;26601;-81
2022/08/16 13:09:23;;;;;;;8.48;6.35;;;;;;;38.28;32.11;99801.11;3546598;81;98345;-80
2022/08/16 13:14:29;;;;;;;9.68;6.92;;;;;;;38.20;33.32;99799.72;3530040;81;26802;-84
2022/08/16 13:19:29;;;;;;;12.55;7.28;;;;;;;38.12;30.82;99798.23;3488094;83;98352;-80
2022/08/16 13:24:32;;;;;;;10.20;6.33;;;;;;;37.43;32.43;99792.61;3495202;82;25927;-81
2022/08/16 13:29:33;;;;;;;10.75;6.78;;;;;;;37.43;32.14;99788.30;3492364;82;98751;-80
2022/08/16 13:34:34;;;;;;;11.35;6.67;;;;;;;37.07;31.02;99787.01;3499820;82;26158;-82
2022/08/16 13:39:35;;;;;;;8.53;6.55;;;;;;;36.55;31.65;99787.76;3518337;82;98751;-83
2022/08/16 13:44:36;;;;;;;7.85;5.78;;;;;;;36.45;32.05;99785.35;3524769;82;25822;-80
2022/08/16 13:49:37;;;;;;;8.40;5.97;;;;;;;36.14;31.74;99784.50;3512813;82;98459;-82
2022/08/16 13:54:38;;;;;;;9.30;6.22;;;;;;;36.07;32.75;99780.17;3511372;82;25925;-82
2022/08/16 13:59:41;;;;;;;6.83;4.33;;;;;;;36.11;33.56;99774.81;3506439;82;98469;-82
2022/08/16 14:04:42;;;;;;;8.13;5.58;;;;;;;36.05;34.33;99771.37;3509647;82;63134;-85
2022/08/16 14:09:44;;;;;;;9.18;5.65;;;;;;;35.93;34.63;99773.83;3512693;82;98589;-84
2022/08/16 14:14:47;;;;;;;9.55;5.65;;;;;;;35.85;32.98;99770.16;3511757;82;40040;-86
2022/08/16 14:19:50;;;;;;;9.00;6.03;;;;;;;35.50;32.79;99771.59;3507534;82;98208;-81
2022/08/16 14:24:54;;;;;;;8.37;5.77;;;;;;;35.40;33.88;99767.72;3516382;82;26012;-82
2022/08/16 14:29:58;;;;;;;6.87;5.37;;;;;;;35.29;34.51;99770.89;3505853;82;98108;-82
2022/08/16 14:35:05;;;;;;;10.38;6.42;;;;;;;35.42;35.84;99772.98;3526535;82;26709;-82
2022/08/16 14:40:10;;;;;;;7.97;5.10;;;;;;;35.36;34.32;99770.94;3533516;82;98306;-83
2022/08/16 14:45:17;;;;;;;7.85;5.30;;;;;;;35.26;33.45;99775.65;3601637;80;28216;-83
2022/08/16 14:50:23;;;;;;;8.28;4.75;;;;;;;35.09;35.30;99768.85;3555191;81;98809;-82
2022/08/16 14:55:31;;;;;;;6.87;4.67;;;;;;;34.92;34.43;99758.53;3558740;81;26590;-81
2022/08/16 15:00:34;;;;;;;7.58;5.03;;;;;;;34.78;34.40;99765.00;3540444;81;98185;-82
2022/08/16 15:05:37;;;;;;;7.92;5.33;;;;;;;34.49;35.07;99769.77;3542744;82;59735;-84
2022/08/16 15:10:38;;;;;;;9.10;5.47;;;;;;;34.45;34.29;99767.91;3538197;81;99127;-84
2022/08/16 15:15:40;;;;;;;9.93;5.20;;;;;;;34.26;35.05;99772.35;3601489;81;26538;-83
2022/08/16 15:20:43;;;;;;;6.72;4.97;;;;;;;34.02;34.16;99776.19;3533689;82;235039;-83
2022/08/16 15:25:51;;;;;;;8.10;4.97;;;;;;;33.84;35.00;99776.44;3546732;82;210505;-84
2022/08/16 15:30:48;;;;;;;7.45;4.72;;;;;;;33.61;35.78;99774.61;3545649;81;98897;-83
2022/08/16 15:35:51;;;;;;;8.35;5.78;;;;;;;33.49;36.37;99774.07;3552018;81;25897;-84
2022/08/16 15:40:52;;;;;;;8.90;4.95;;;;;;;33.29;35.72;99776.16;3554544;82;98181;-83
2022/08/16 15:51:13;;;;;;;8.85;5.97;;;;;;;32.99;36.95;99786.31;3556527;82;98080;-85
2022/08/16 15:56:14;;;;;;;8.73;5.20;;;;;;;32.74;35.59;99798.52;3568732;81;35602;-84
2022/08/16 16:01:20;;;;;;;8.03;5.35;;;;;;;32.56;37.10;99796.50;3561915;81;2522546;-84
2022/08/16 16:06:21;;;;;;;8.23;5.03;;;;;;;32.47;37.20;99797.58;3596709;81;26439;-83
2022/08/16 16:11:22;;;;;;;7.67;4.95;;;;;;;32.33;37.74;99803.09;3579021;81;97950;-84
2022/08/16 16:16:23;;;;;;;7.37;5.37;;;;;;;32.18;38.04;99803.55;3581216;81;34846;-84
2022/08/16 16:21:24;;;;;;;8.30;5.10;;;;;;;32.01;37.62;99795.13;3560415;81;98471;-82
2022/08/16 16:26:26;;;;;;;6.72;4.75;;;;;;;31.80;36.90;99801.23;3593140;81;36281;-82
2022/08/16 16:31:28;;;;;;;7.65;4.90;;;;;;;31.64;37.96;99795.86;3562886;81;141744;-82
2022/08/16 16:36:33;;;;;;;7.65;5.15;;;;;;;31.46;39.44;99793.77;3569812;81;98765;-83
2022/08/16 16:41:35;;;;;;;8.95;5.22;;;;;;;31.29;39.38;99794.62;3601119;81;25913;-82
2022/08/16 16:46:37;;;;;;;8.08;4.95;;;;;;;31.18;40.69;99790.45;3587994;81;98370;-83
2022/08/16 16:51:39;;;;;;;7.78;4.75;;;;;;;31.03;40.68;99797.83;3585834;81;26009;-82
2022/08/16 16:56:40;;;;;;;8.60;5.58;;;;;;;30.93;41.52;99800.26;3602436;81;98414;-83
2022/08/16 17:01:48;;;;;;;9.33;5.33;;;;;;;30.74;40.45;99799.39;3593312;81;34854;-82
2022/08/16 17:06:49;;;;;;;7.53;4.92;;;;;;;30.59;40.78;99802.47;3589309;81;98378;-81
2022/08/16 17:11:51;;;;;;;7.58;5.12;;;;;;;30.44;41.55;99809.95;3587671;81;25899;-82
2022/08/16 17:16:52;;;;;;;7.33;5.00;;;;;;;30.32;42.29;99817.66;3597542;81;98377;-82
2022/08/16 17:21:53;;;;;;;7.12;4.80;;;;;;;30.19;42.57;99823.92;3591347;81;35951;-82
2022/08/16 17:26:54;;;;;;;8.43;4.80;;;;;;;30.06;42.92;99820.89;3594372;81;98801;-82
2022/08/16 17:31:55;;;;;;;7.83;5.42;;;;;;;29.93;43.47;99820.72;3607430;81;35837;-81
2022/08/16 17:36:59;;;;;;;8.93;4.97;;;;;;;29.82;44.27;99827.87;3597390;81;98631;-81
2022/08/16 17:42:04;;;;;;;9.33;4.95;;;;;;;29.70;44.79;99834.86;3601568;81;25846;-82
2022/08/16 17:47:06;;;;;;;9.23;5.35;;;;;;;29.57;45.37;99831.05;3573909;81;98502;-82
2022/08/16 17:52:08;;;;;;;8.33;5.22;;;;;;;29.42;46.26;99835.58;3610248;81;34962;-82
2022/08/16 17:57:09;;;;;;;8.10;5.40;;;;;;;29.26;47.13;99839.89;3579560;81;98384;-81
2022/08/16 18:02:11;;;;;;;9.00;6.00;;;;;;;29.09;47.76;99839.16;3597831;80;25957;-81
2022/08/16 18:07:12;;;;;;;8.95;6.03;;;;;;;28.90;48.33;99844.55;3527742;81;98824;-81
2022/08/16 18:12:17;;;;;;;9.10;6.22;;;;;;;28.72;49.01;99847.88;3578781;80;34924;-81
2022/08/16 18:17:18;;;;;;;11.57;6.95;;;;;;;28.52;49.59;99847.37;3550858;81;98479;-80
2022/08/16 18:22:26;;;;;;;9.23;5.92;;;;;;;28.33;50.36;99859.79;3586523;81;34824;-82
2022/08/16 18:27:31;;;;;;;10.68;7.08;;;;;;;28.17;50.92;99868.26;3564069;81;98375;-81
2022/08/16 18:32:30;;;;;;;9.70;7.00;;;;;;;28.01;51.66;99884.53;3597290;80;25974;-81
2022/08/16 18:37:31;;;;;;;10.80;7.50;;;;;;;27.86;51.85;99892.44;3595971;80;98223;-80
2022/08/16 18:42:32;;;;;;;16.62;7.10;;;;;;;27.72;52.30;99891.95;3547369;81;35460;-81
2022/08/16 18:47:33;;;;;;;10.23;6.25;;;;;;;27.55;52.28;99902.39;3530594;82;98506;-81
2022/08/16 18:52:34;;;;;;;10.13;6.85;;;;;;;27.39;52.57;99902.44;3549647;81;35322;-81
2022/08/16 18:57:35;;;;;;;9.85;6.62;;;;;;;27.27;52.88;99897.21;3543288;82;98837;-81
2022/08/16 19:02:36;;;;;;;10.25;6.42;;;;;;;27.16;53.61;99898.52;3582524;80;35382;-81
2022/08/16 19:07:37;;;;;;;10.55;6.53;;;;;;;27.05;54.31;99902.67;3545715;81;98662;-81
2022/08/16 19:12:39;;;;;;;12.35;6.15;;;;;;;26.93;54.63;99897.59;3531957;81;34841;-81
2022/08/16 19:17:40;;;;;;;9.73;5.87;;;;;;;26.82;54.67;99902.36;3531519;81;98251;-82
2022/08/16 19:22:42;;;;;;;11.08;5.75;;;;;;;26.58;54.91;99878.66;3583701;80;34889;-82
2022/08/16 19:27:43;;;;;;;11.10;6.42;;;;;;;26.58;55.23;99901.23;3530756;81;98809;-82
2022/08/16 19:32:45;;;;;;;12.05;6.80;;;;;;;26.48;55.58;99904.05;3542387;81;35434;-81
2022/08/16 19:37:46;;;;;;;10.55;7.37;;;;;;;26.40;56.24;99907.19;3583930;81;98837;-81
2022/08/16 19:42:47;;;;;;;11.43;7.00;;;;;;;26.31;56.62;99908.75;3536454;81;48627;-82
2022/08/16 19:47:51;;;;;;;11.93;7.40;;;;;;;26.22;57.04;99915.19;3483131;82;98843;-81
2022/08/16 19:53:00;;;;;;;10.40;6.83;;;;;;;26.14;57.94;99920.48;3540040;82;35086;-82
2022/08/16 19:58:04;;;;;;;13.85;7.40;;;;;;;26.06;58.57;99925.02;3533595;81;99024;-81
2022/08/16 20:03:13;;;;;;;14.20;7.30;;;;;;;25.98;59.10;99925.91;3552294;82;34892;-81
2022/08/16 20:08:15;;;;;;;11.08;7.50;;;;;;;25.89;59.55;99942.30;3528483;81;98826;-81
2022/08/16 20:13:20;;;;;;;12.43;7.30;;;;;;;25.79;59.69;99940.91;3557189;81;26077;-81
2022/08/16 20:18:21;;;;;;;13.93;6.97;;;;;;;25.71;60.06;99943.23;3546063;81;98554;-81
2022/08/16 20:23:22;;;;;;;12.60;7.00;;;;;;;25.62;60.48;99939.87;3559061;81;34931;-81
2022/08/16 20:28:23;;;;;;;11.63;7.08;;;;;;;25.54;60.83;99943.60;3555018;81;98564;-81
2022/08/16 20:33:25;;;;;;;10.58;7.25;;;;;;;25.47;61.40;99944.02;3560170;81;34828;-81
2022/08/16 20:38:26;;;;;;;10.85;7.30;;;;;;;25.40;61.73;99938.80;3545161;81;98599;-81
2022/08/16 20:43:27;;;;;;;12.18;7.58;;;;;;;25.31;62.01;99943.91;3552912;81;34878;-81
2022/08/16 20:48:28;;;;;;;12.47;7.78;;;;;;;25.24;62.47;99949.90;3548040;81;98578;-81
2022/08/16 20:53:29;;;;;;;13.25;8.00;;;;;;;25.17;62.85;99946.08;3560605;81;45723;-81
2022/08/16 20:58:30;;;;;;;11.80;7.78;;;;;;;25.11;63.24;99950.85;3541254;82;98498;-81
2022/08/16 21:03:31;;;;;;;14.18;8.08;;;;;;;25.05;63.10;99959.84;3564060;81;34874;-81
2022/08/16 21:08:35;;;;;;;14.23;8.35;;;;;;;24.94;63.27;99966.69;3549079;81;99053;-82
2022/08/16 21:13:36;;;;;;;12.70;8.08;;;;;;;24.87;63.89;99966.30;3556517;81;34922;-81
2022/08/16 21:18:37;;;;;;;14.25;8.98;;;;;;;24.77;64.05;99967.65;3555822;81;98435;-82
2022/08/16 21:23:39;;;;;;;12.40;8.58;;;;;;;24.69;64.32;99962.27;3529659;81;34898;-81
2022/08/16 21:28:40;;;;;;;13.08;8.33;;;;;;;24.57;64.42;99956.27;3554812;81;98645;-81
2022/08/16 21:33:43;;;;;;;13.88;8.63;;;;;;;24.51;65.04;99956.15;3574271;81;35365;-81
2022/08/16 21:38:44;;;;;;;13.58;8.33;;;;;;;24.42;65.31;99953.41;3552655;81;97950;-81
2022/08/16 21:43:45;;;;;;;14.35;8.98;;;;;;;24.39;65.64;99955.00;3548686;82;35287;-82
2022/08/16 21:48:46;;;;;;;21.90;10.58;;;;;;;24.31;65.89;99960.22;3496036;81;98838;-80
2022/08/16 21:53:47;;;;;;;13.30;8.78;;;;;;;24.24;66.30;99970.44;3492341;82;34879;-81
2022/08/16 21:58:49;;;;;;;14.00;8.13;;;;;;;24.22;66.52;99968.75;3474672;83;98500;-81
2022/08/16 22:03:51;;;;;;;12.15;8.20;;;;;;;24.15;66.48;99974.72;3513637;82;34820;-81
2022/08/16 22:08:53;;;;;;;12.05;8.63;;;;;;;24.08;66.94;99975.09;3521868;82;98470;-81
2022/08/16 22:13:54;;;;;;;14.50;8.50;;;;;;;24.02;67.04;99974.20;3546559;81;48314;-81
2022/08/16 22:18:55;;;;;;;11.53;7.92;;;;;;;23.96;67.46;99976.73;3539434;81;98815;-81
2022/08/16 22:23:57;;;;;;;13.00;9.30;;;;;;;23.92;67.63;99980.38;3560960;81;34812;-81
2022/08/16 22:29:03;;;;;;;15.58;9.73;;;;;;;23.85;67.86;99983.48;3539544;82;98607;-82
2022/08/16 22:34:05;;;;;;;14.93;9.60;;;;;;;23.78;67.86;99979.02;3546646;81;33973;-82
2022/08/16 22:39:10;;;;;;;14.07;9.25;;;;;;;23.63;68.14;99993.61;3530518;81;98880;-82
2022/08/16 22:44:11;;;;;;;15.08;10.18;;;;;;;23.54;68.05;99993.64;3541161;82;25875;-81
2022/08/16 22:49:16;;;;;;;14.03;9.35;;;;;;;23.44;68.31;99981.53;3548008;82;99182;-81
2022/08/16 22:54:17;;;;;;;13.68;9.10;;;;;;;23.41;68.75;99993.70;3544779;82;35423;-82
2022/08/16 22:59:18;;;;;;;15.10;9.50;;;;;;;23.32;68.80;100001.55;3541822;81;99008;-84
2022/08/16 23:04:19;;;;;;;15.32;9.38;;;;;;;23.13;69.15;100000.03;3532837;82;35281;-83
2022/08/16 23:09:20;;;;;;;14.38;9.98;;;;;;;23.06;69.62;99992.56;3535458;81;98599;-84
2022/08/16 23:14:21;;;;;;;15.68;10.38;;;;;;;23.00;69.52;99993.05;3522833;82;35347;-81
2022/08/16 23:19:22;;;;;;;14.78;9.35;;;;;;;22.95;70.09;99988.06;3543536;81;98674;-83
2022/08/16 23:24:23;;;;;;;16.07;10.88;;;;;;;22.97;70.27;99982.75;3535848;82;35239;-82
2022/08/16 23:29:24;;;;;;;14.65;9.90;;;;;;;22.90;70.07;99982.47;3545691;82;98620;-83